createdAt,value
2023-10-21T00:00:18.673Z,12.05
2023-10-21T00:01:18.575Z,12.01
2023-10-21T00:02:18.423Z,11.96
2023-10-21T00:03:18.554Z,11.93
2023-10-21T00:04:18.503Z,11.89
2023-10-21T00:05:18.527Z,11.83
2023-10-21T00:06:18.463Z,11.80
2023-10-21T00:07:18.366Z,11.77
2023-10-21T00:08:18.658Z,11.75
2023-10-21T00:09:18.460Z,11.74
2023-10-21T00:10:18.510Z,11.72
2023-10-21T00:11:18.574Z,11.71
2023-10-21T00:12:18.600Z,11.70
2023-10-21T00:13:18.309Z,11.67
2023-10-21T00:14:18.698Z,11.65
2023-10-21T00:15:18.507Z,11.64
2023-10-21T00:16:18.388Z,11.64
2023-10-21T00:17:18.294Z,11.64
2023-10-21T00:18:18.985Z,11.62
2023-10-21T00:19:18.369Z,11.62
2023-10-21T00:20:18.442Z,11.61
2023-10-21T00:21:18.419Z,11.57
2023-10-21T00:22:18.236Z,11.54
2023-10-21T00:23:18.252Z,11.53
2023-10-21T00:24:18.381Z,11.50
2023-10-21T00:25:18.292Z,11.46
2023-10-21T00:26:18.229Z,11.46
2023-10-21T00:27:18.222Z,11.43
2023-10-21T00:28:18.648Z,11.41
2023-10-21T00:29:18.179Z,11.39
2023-10-21T00:30:18.337Z,11.38
2023-10-21T00:31:18.199Z,11.36
2023-10-21T00:32:18.108Z,11.35
2023-10-21T00:33:18.171Z,11.34
2023-10-21T00:34:18.210Z,11.32
2023-10-21T00:35:18.415Z,11.31
2023-10-21T00:36:18.198Z,11.32
2023-10-21T00:37:18.094Z,11.32
2023-10-21T00:38:18.121Z,11.34
2023-10-21T00:39:18.281Z,11.35
2023-10-21T00:40:18.189Z,11.38
2023-10-21T00:41:18.158Z,11.39
2023-10-21T00:42:18.096Z,11.43
2023-10-21T00:43:17.999Z,11.47
2023-10-21T00:44:18.092Z,11.50
2023-10-21T00:45:18.038Z,11.56
2023-10-21T00:46:18.006Z,11.57
2023-10-21T00:47:17.938Z,11.62
2023-10-21T00:48:18.239Z,11.67
2023-10-21T00:49:18.027Z,11.72
2023-10-21T00:50:18.094Z,11.78
2023-10-21T00:51:17.976Z,11.82
2023-10-21T00:52:17.902Z,11.85
2023-10-21T00:53:17.943Z,11.87
2023-10-21T00:54:18.020Z,11.90
2023-10-21T00:55:17.856Z,11.96
2023-10-21T00:56:17.865Z,12.01
2023-10-21T00:57:17.903Z,12.01
2023-10-21T00:58:17.852Z,12.04
2023-10-21T00:59:18.013Z,12.05
2023-10-21T01:00:18.205Z,12.09
2023-10-21T01:01:17.910Z,12.12
2023-10-21T01:02:17.811Z,12.19
2023-10-21T01:03:17.947Z,12.20
2023-10-21T01:04:18.131Z,12.23
2023-10-21T01:05:17.794Z,12.24
2023-10-21T01:06:17.855Z,12.26
2023-10-21T01:07:18.045Z,12.26
2023-10-21T01:08:18.030Z,12.26
2023-10-21T01:09:17.835Z,12.27
2023-10-21T01:10:17.923Z,12.30
2023-10-21T01:11:17.938Z,12.30
2023-10-21T01:12:17.982Z,12.31
2023-10-21T01:13:17.693Z,12.33
2023-10-21T01:14:17.781Z,12.30
2023-10-21T01:15:17.950Z,12.33
2023-10-21T01:16:17.732Z,12.34
2023-10-21T01:17:17.676Z,12.39
2023-10-21T01:18:17.738Z,12.39
2023-10-21T01:19:17.641Z,12.41
2023-10-21T01:20:17.648Z,12.44
2023-10-21T01:21:17.636Z,12.48
2023-10-21T01:22:17.613Z,12.48
2023-10-21T01:23:17.848Z,12.49
2023-10-21T01:24:17.659Z,12.49
2023-10-21T01:25:17.606Z,12.49
2023-10-21T01:26:17.604Z,12.49
2023-10-21T01:27:17.678Z,12.51
2023-10-21T01:28:18.278Z,12.49
2023-10-21T01:29:17.535Z,12.49
2023-10-21T01:30:17.954Z,12.51
2023-10-21T01:31:17.567Z,12.52
2023-10-21T01:32:17.519Z,12.51
2023-10-21T01:33:17.675Z,12.51
2023-10-21T01:34:17.912Z,12.52
2023-10-21T01:35:17.460Z,12.52
2023-10-21T01:36:17.896Z,12.54
2023-10-21T01:37:17.469Z,12.54
2023-10-21T01:38:17.526Z,12.56
2023-10-21T01:39:17.655Z,12.57
2023-10-21T01:40:17.498Z,12.59
2023-10-21T01:41:17.923Z,12.60
2023-10-21T01:42:17.544Z,12.62
2023-10-21T01:43:17.549Z,12.63
2023-10-21T01:44:17.567Z,12.64
2023-10-21T01:45:17.560Z,12.66
2023-10-21T01:46:17.388Z,12.67
2023-10-21T01:47:17.489Z,12.69
2023-10-21T01:48:17.525Z,12.69
2023-10-21T01:49:17.369Z,12.70
2023-10-21T01:50:17.348Z,12.70
2023-10-21T01:51:17.372Z,12.70
2023-10-21T01:52:17.314Z,12.74
2023-10-21T01:53:17.414Z,12.75
2023-10-21T01:54:17.402Z,12.77
2023-10-21T01:55:17.261Z,12.77
2023-10-21T01:56:17.253Z,12.77
2023-10-21T01:57:17.271Z,12.77
2023-10-21T01:58:17.409Z,12.75
2023-10-21T01:59:17.454Z,12.77
2023-10-21T02:00:17.346Z,12.77
2023-10-21T02:01:17.222Z,12.78
2023-10-21T02:02:17.270Z,12.78
2023-10-21T02:03:17.480Z,12.78
2023-10-21T02:04:17.269Z,12.79
2023-10-21T02:05:17.263Z,12.77
2023-10-21T02:06:17.373Z,12.78
2023-10-21T02:07:17.389Z,12.78
2023-10-21T02:08:17.292Z,12.77
2023-10-21T02:09:17.293Z,12.78
2023-10-21T02:10:17.130Z,12.78
2023-10-21T02:11:17.329Z,12.78
2023-10-21T02:12:17.291Z,12.78
2023-10-21T02:13:17.245Z,12.81
2023-10-21T02:14:17.133Z,12.81
2023-10-21T02:15:17.367Z,12.85
2023-10-21T02:16:17.253Z,12.84
2023-10-21T02:17:17.084Z,12.87
2023-10-21T02:18:17.347Z,12.88
2023-10-21T02:19:17.150Z,12.87
2023-10-21T02:20:17.219Z,12.88
2023-10-21T02:21:17.029Z,12.92
2023-10-21T02:22:17.330Z,12.93
2023-10-21T02:23:17.011Z,12.93
2023-10-21T02:24:17.085Z,12.93
2023-10-21T02:25:17.052Z,12.96
2023-10-21T02:26:16.991Z,12.96
2023-10-21T02:27:16.970Z,12.97
2023-10-21T02:28:17.278Z,12.97
2023-10-21T02:29:17.168Z,12.99
2023-10-21T02:30:17.213Z,12.99
2023-10-21T02:31:17.086Z,12.97
2023-10-21T02:32:17.077Z,12.99
2023-10-21T02:33:17.088Z,13.02
2023-10-21T02:34:17.557Z,13.00
2023-10-21T02:35:17.026Z,13.02
2023-10-21T02:36:16.911Z,13.03
2023-10-21T02:37:16.849Z,13.04
2023-10-21T02:38:16.919Z,13.06
2023-10-21T02:39:16.937Z,13.06
2023-10-21T02:40:17.542Z,13.07
2023-10-21T02:41:16.970Z,13.07
2023-10-21T02:42:17.044Z,13.07
2023-10-21T02:43:16.941Z,13.11
2023-10-21T02:44:16.945Z,13.11
2023-10-21T02:45:16.847Z,13.09
2023-10-21T02:46:16.996Z,13.11
2023-10-21T02:47:16.809Z,13.11
2023-10-21T02:48:17.068Z,13.11
2023-10-21T02:49:16.719Z,13.11
2023-10-21T02:50:16.802Z,13.12
2023-10-21T02:51:17.088Z,13.12
2023-10-21T02:52:16.802Z,13.14
2023-10-21T02:53:16.860Z,13.14
2023-10-21T02:54:16.832Z,13.15
2023-10-21T02:55:16.891Z,13.15
2023-10-21T02:56:16.870Z,13.17
2023-10-21T02:57:16.689Z,13.17
2023-10-21T02:58:16.776Z,13.17
2023-10-21T02:59:16.906Z,13.17
2023-10-21T03:00:17.028Z,13.17
2023-10-21T03:01:16.805Z,13.17
2023-10-21T03:02:16.645Z,13.20
2023-10-21T03:03:16.931Z,13.17
2023-10-21T03:04:16.858Z,13.17
2023-10-21T03:05:16.567Z,13.17
2023-10-21T03:06:16.708Z,13.18
2023-10-21T03:07:16.607Z,13.17
2023-10-21T03:08:16.724Z,13.18
2023-10-21T03:09:16.547Z,13.21
2023-10-21T03:10:16.646Z,13.22
2023-10-21T03:11:16.722Z,13.22
2023-10-21T03:12:16.617Z,13.22
2023-10-21T03:13:16.718Z,13.22
2023-10-21T03:14:16.513Z,13.22
2023-10-21T03:15:16.654Z,13.22
2023-10-21T03:16:16.791Z,13.24
2023-10-21T03:17:16.458Z,13.25
2023-10-21T03:18:17.102Z,13.27
2023-10-21T03:19:16.737Z,13.25
2023-10-21T03:20:16.408Z,13.27
2023-10-21T03:21:16.536Z,13.29
2023-10-21T03:22:16.427Z,13.27
2023-10-21T03:23:16.400Z,13.29
2023-10-21T03:24:16.665Z,13.29
2023-10-21T03:25:16.393Z,13.29
2023-10-21T03:26:16.548Z,13.30
2023-10-21T03:27:16.599Z,13.30
2023-10-21T03:28:16.553Z,13.29
2023-10-21T03:29:16.519Z,13.30
2023-10-21T03:30:16.470Z,13.30
2023-10-21T03:31:16.502Z,13.30
2023-10-21T03:32:16.268Z,13.30
2023-10-21T03:33:16.470Z,13.29
2023-10-21T03:34:16.362Z,13.30
2023-10-21T03:35:16.417Z,13.30
2023-10-21T03:36:16.345Z,13.30
2023-10-21T03:37:16.373Z,13.29
2023-10-21T03:38:16.208Z,13.30
2023-10-21T03:39:16.360Z,13.30
2023-10-21T03:40:16.201Z,13.29
2023-10-21T03:41:16.230Z,13.29
2023-10-21T03:42:16.413Z,13.29
2023-10-21T03:43:16.349Z,13.29
2023-10-21T03:44:16.185Z,13.29
2023-10-21T03:45:16.421Z,13.27
2023-10-21T03:46:16.300Z,13.27
2023-10-21T03:47:16.186Z,13.29
2023-10-21T03:48:16.408Z,13.30
2023-10-21T03:49:16.216Z,13.30
2023-10-21T03:50:16.178Z,13.30
2023-10-21T03:51:16.146Z,13.30
2023-10-21T03:52:16.099Z,13.32
2023-10-21T03:53:16.092Z,13.30
2023-10-21T03:54:16.243Z,13.33
2023-10-21T03:55:16.098Z,13.30
2023-10-21T03:56:16.070Z,13.32
2023-10-21T03:57:16.079Z,13.32
2023-10-21T03:58:16.087Z,13.32
2023-10-21T03:59:16.014Z,13.33
2023-10-21T04:00:16.084Z,13.33
2023-10-21T04:01:16.065Z,13.32
2023-10-21T04:02:16.118Z,13.33
2023-10-21T04:03:16.111Z,13.33
2023-10-21T04:04:16.069Z,13.36
2023-10-21T04:05:16.042Z,13.37
2023-10-21T04:06:16.347Z,13.36
2023-10-21T04:07:16.013Z,13.38
2023-10-21T04:08:15.968Z,13.38
2023-10-21T04:09:15.981Z,13.38
2023-10-21T04:10:16.153Z,13.40
2023-10-21T04:11:16.042Z,13.38
2023-10-21T04:12:15.975Z,13.37
2023-10-21T04:13:16.036Z,13.38
2023-10-21T04:14:15.901Z,13.40
2023-10-21T04:15:15.878Z,13.41
2023-10-21T04:16:15.965Z,13.40
2023-10-21T04:17:15.851Z,13.40
2023-10-21T04:18:15.958Z,13.41
2023-10-21T04:19:16.437Z,13.43
2023-10-21T04:20:15.819Z,13.41
2023-10-21T04:21:15.856Z,13.43
2023-10-21T04:22:15.788Z,13.43
2023-10-21T04:23:15.826Z,13.44
2023-10-21T04:24:15.838Z,13.44
2023-10-21T04:25:15.774Z,13.44
2023-10-21T04:26:15.812Z,13.43
2023-10-21T04:27:15.801Z,13.43
2023-10-21T04:28:15.740Z,13.44
2023-10-21T04:29:15.741Z,13.43
2023-10-21T04:30:15.931Z,13.43
2023-10-21T04:31:15.732Z,13.43
2023-10-21T04:32:15.694Z,13.41
2023-10-21T04:33:15.828Z,13.43
2023-10-21T04:34:15.711Z,13.41
2023-10-21T04:35:15.678Z,13.43
2023-10-21T04:36:15.774Z,13.41
2023-10-21T04:37:15.668Z,13.41
2023-10-21T04:38:16.008Z,13.43
2023-10-21T04:39:15.642Z,13.43
2023-10-21T04:40:15.618Z,13.43
2023-10-21T04:41:15.595Z,13.40
2023-10-21T04:42:15.873Z,13.40
2023-10-21T04:43:15.573Z,13.40
2023-10-21T04:44:15.680Z,13.40
2023-10-21T04:45:15.621Z,13.40
2023-10-21T04:46:15.630Z,13.41
2023-10-21T04:47:15.531Z,13.40
2023-10-21T04:48:15.714Z,13.43
2023-10-21T04:49:15.532Z,13.43
2023-10-21T04:50:15.552Z,13.43
2023-10-21T04:51:15.571Z,13.41
2023-10-21T04:52:15.541Z,13.43
2023-10-21T04:53:15.484Z,13.44
2023-10-21T04:54:15.555Z,13.43
2023-10-21T04:55:15.518Z,13.43
2023-10-21T04:56:15.825Z,13.41
2023-10-21T04:57:15.583Z,13.44
2023-10-21T04:58:15.530Z,13.44
2023-10-21T04:59:15.466Z,13.44
2023-10-21T05:00:15.504Z,13.44
2023-10-21T05:01:15.487Z,13.44
2023-10-21T05:02:15.411Z,13.46
2023-10-21T05:03:15.563Z,13.46
2023-10-21T05:04:15.492Z,13.46
2023-10-21T05:05:15.402Z,13.47
2023-10-21T05:06:15.547Z,13.49
2023-10-21T05:07:15.376Z,13.49
2023-10-21T05:08:15.321Z,13.49
2023-10-21T05:09:15.380Z,13.49
2023-10-21T05:10:15.328Z,13.49
2023-10-21T05:11:15.279Z,13.49
2023-10-21T05:12:15.421Z,13.49
2023-10-21T05:13:15.435Z,13.51
2023-10-21T05:14:15.275Z,13.51
2023-10-21T05:15:15.464Z,13.49
2023-10-21T05:16:15.393Z,13.51
2023-10-21T05:17:15.329Z,13.49
2023-10-21T05:18:15.426Z,13.49
2023-10-21T05:19:15.295Z,13.51
2023-10-21T05:20:15.268Z,13.51
2023-10-21T05:21:15.639Z,13.49
2023-10-21T05:22:15.225Z,13.51
2023-10-21T05:23:15.219Z,13.49
2023-10-21T05:24:15.289Z,13.49
2023-10-21T05:25:15.272Z,13.49
2023-10-21T05:26:15.170Z,13.47
2023-10-21T05:27:15.186Z,13.47
2023-10-21T05:28:15.147Z,13.47
2023-10-21T05:29:15.153Z,13.47
2023-10-21T05:30:15.455Z,13.46
2023-10-21T05:31:15.176Z,13.41
2023-10-21T05:32:15.128Z,13.40
2023-10-21T05:33:15.343Z,13.37
2023-10-21T05:34:15.487Z,13.36
2023-10-21T05:35:15.053Z,13.32
2023-10-21T05:36:15.217Z,13.29
2023-10-21T05:37:15.022Z,13.25
2023-10-21T05:38:15.057Z,13.22
2023-10-21T05:39:15.101Z,13.21
2023-10-21T05:40:15.025Z,13.20
2023-10-21T05:41:15.028Z,13.20
2023-10-21T05:42:15.091Z,13.18
2023-10-21T05:43:15.012Z,13.17
2023-10-21T05:44:14.981Z,13.12
2023-10-21T05:45:14.997Z,13.11
2023-10-21T05:46:14.987Z,13.07
2023-10-21T05:47:15.075Z,13.07
2023-10-21T05:48:15.223Z,13.04
2023-10-21T05:49:14.925Z,13.02
2023-10-21T05:50:14.976Z,13.00
2023-10-21T05:51:14.958Z,12.99
2023-10-21T05:52:14.922Z,12.97
2023-10-21T05:53:14.967Z,12.97
2023-10-21T05:54:15.109Z,12.96
2023-10-21T05:55:14.920Z,12.93
2023-10-21T05:56:15.178Z,12.88
2023-10-21T05:57:15.121Z,12.84
2023-10-21T05:58:15.103Z,12.81
2023-10-21T05:59:15.234Z,12.75
2023-10-21T06:00:15.102Z,12.70
2023-10-21T06:01:14.801Z,12.67
2023-10-21T06:02:14.782Z,12.63
2023-10-21T06:03:15.099Z,12.62
2023-10-21T06:04:15.056Z,12.60
2023-10-21T06:05:14.786Z,12.59
2023-10-21T06:06:15.075Z,12.54
2023-10-21T06:07:17.233Z,12.51
2023-10-21T06:08:15.130Z,12.51
2023-10-21T06:09:14.790Z,12.49
2023-10-21T06:10:14.744Z,12.49
2023-10-21T06:11:14.742Z,12.48
2023-10-21T06:12:15.126Z,12.48
2023-10-21T06:13:15.017Z,12.45
2023-10-21T06:14:14.865Z,12.42
2023-10-21T06:15:14.820Z,12.39
2023-10-21T06:16:14.910Z,12.38
2023-10-21T06:17:14.661Z,12.38
2023-10-21T06:18:14.752Z,12.38
2023-10-21T06:19:14.702Z,12.39
2023-10-21T06:20:14.779Z,12.37
2023-10-21T06:21:14.726Z,12.38
2023-10-21T06:22:14.635Z,12.37
2023-10-21T06:23:14.597Z,12.34
2023-10-21T06:24:14.711Z,12.37
2023-10-21T06:25:14.715Z,12.37
2023-10-21T06:26:15.340Z,12.39
2023-10-21T06:27:14.598Z,12.41
2023-10-21T06:28:14.772Z,12.42
2023-10-21T06:29:14.790Z,12.45
2023-10-21T06:30:14.573Z,12.49
2023-10-21T06:31:14.557Z,12.51
2023-10-21T06:32:14.520Z,12.56
2023-10-21T06:33:14.575Z,12.59
2023-10-21T06:34:14.463Z,12.64
2023-10-21T06:35:14.472Z,12.69
2023-10-21T06:36:14.642Z,12.71
2023-10-21T06:37:14.460Z,12.77
2023-10-21T06:38:14.450Z,12.81
2023-10-21T06:39:14.472Z,12.84
2023-10-21T06:40:24.364Z,12.89
2023-10-21T06:41:15.080Z,12.92
2023-10-21T06:42:14.762Z,12.97
2023-10-21T06:43:14.393Z,13.02
2023-10-21T06:44:14.690Z,13.06
2023-10-21T06:45:14.433Z,13.11
2023-10-21T06:46:14.585Z,13.14
2023-10-21T06:47:14.693Z,13.18
2023-10-21T06:48:14.539Z,13.22
2023-10-21T06:49:14.309Z,13.25
2023-10-21T06:50:14.322Z,13.29
2023-10-21T06:51:14.417Z,13.32
2023-10-21T06:52:14.641Z,13.33
2023-10-21T06:53:14.422Z,13.38
2023-10-21T06:54:14.734Z,13.40
2023-10-21T06:55:14.261Z,13.40
2023-10-21T06:56:14.298Z,13.43
2023-10-21T06:57:14.523Z,13.44
2023-10-21T06:58:14.256Z,13.46
2023-10-21T06:59:14.304Z,13.47
2023-10-21T07:00:14.299Z,13.49
2023-10-21T07:01:14.248Z,13.52
2023-10-21T07:02:14.196Z,13.52
2023-10-21T07:03:14.256Z,13.54
2023-10-21T07:04:14.209Z,13.56
2023-10-21T07:05:14.428Z,13.56
2023-10-21T07:06:14.436Z,13.58
2023-10-21T07:07:14.174Z,13.61
2023-10-21T07:08:14.150Z,13.62
2023-10-21T07:09:14.186Z,13.62
2023-10-21T07:10:14.127Z,13.63
2023-10-21T07:11:16.680Z,13.63
2023-10-21T07:12:14.301Z,13.67
2023-10-21T07:13:14.113Z,13.67
2023-10-21T07:14:14.109Z,13.70
2023-10-21T07:15:14.198Z,13.70
2023-10-21T07:16:14.175Z,13.71
2023-10-21T07:17:14.196Z,13.71
2023-10-21T07:18:14.237Z,13.70
2023-10-21T07:19:14.217Z,13.69
2023-10-21T07:20:14.210Z,13.71
2023-10-21T07:21:14.194Z,13.71
2023-10-21T07:22:15.196Z,13.71
2023-10-21T07:23:14.150Z,13.71
2023-10-21T07:24:14.476Z,13.70
2023-10-21T07:25:13.980Z,13.71
2023-10-21T07:26:14.102Z,13.71
2023-10-21T07:27:14.112Z,13.70
2023-10-21T07:28:14.016Z,13.69
2023-10-21T07:29:14.134Z,13.67
2023-10-21T07:30:14.168Z,13.65
2023-10-21T07:31:14.182Z,13.65
2023-10-21T07:32:13.904Z,13.63
2023-10-21T07:33:14.421Z,13.67
2023-10-21T07:34:13.970Z,13.63
2023-10-21T07:35:14.054Z,13.63
2023-10-21T07:36:14.119Z,13.65
2023-10-21T07:37:14.046Z,13.67
2023-10-21T07:38:14.082Z,13.67
2023-10-21T07:39:13.949Z,13.69
2023-10-21T07:40:13.832Z,13.71
2023-10-21T07:41:13.812Z,13.76
2023-10-21T07:42:14.017Z,13.79
2023-10-21T07:43:14.771Z,13.81
2023-10-21T07:44:16.403Z,13.88
2023-10-21T07:45:14.000Z,13.89
2023-10-21T07:46:13.824Z,13.96
2023-10-21T07:47:13.771Z,13.98
2023-10-21T07:48:13.878Z,14.02
2023-10-21T07:49:13.726Z,14.06
2023-10-21T07:50:13.723Z,14.06
2023-10-21T07:51:13.738Z,14.02
2023-10-21T07:52:13.778Z,13.98
2023-10-21T07:53:13.824Z,13.96
2023-10-21T07:54:13.959Z,13.95
2023-10-21T07:55:13.722Z,13.88
2023-10-21T07:56:13.794Z,13.87
2023-10-21T07:57:13.809Z,13.87
2023-10-21T07:58:13.676Z,13.88
2023-10-21T07:59:13.762Z,13.88
2023-10-21T08:00:13.816Z,13.89
2023-10-21T08:01:13.608Z,13.84
2023-10-21T08:02:13.800Z,13.84
2023-10-21T08:03:13.901Z,13.87
2023-10-21T08:04:13.790Z,13.88
2023-10-21T08:05:13.778Z,13.91
2023-10-21T08:06:13.585Z,13.98
2023-10-21T08:07:13.567Z,14.06
2023-10-21T08:08:13.721Z,14.16
2023-10-21T08:09:13.602Z,14.27
2023-10-21T08:10:13.556Z,14.32
2023-10-21T08:11:13.564Z,14.28
2023-10-21T08:12:13.743Z,14.25
2023-10-21T08:13:13.502Z,14.25
2023-10-21T08:14:13.608Z,14.31
2023-10-21T08:15:13.520Z,14.35
2023-10-21T08:16:13.724Z,14.37
2023-10-21T08:17:13.627Z,14.42
2023-10-21T08:18:13.520Z,14.39
2023-10-21T08:19:13.441Z,14.44
2023-10-21T08:20:13.801Z,14.47
2023-10-21T08:21:13.456Z,14.50
2023-10-21T08:22:13.432Z,14.52
2023-10-21T08:23:13.424Z,14.42
2023-10-21T08:24:13.548Z,14.43
2023-10-21T08:25:13.548Z,14.54
2023-10-21T08:26:13.415Z,14.71
2023-10-21T08:27:13.605Z,14.94
2023-10-21T08:28:13.343Z,15.08
2023-10-21T08:29:13.377Z,15.13
2023-10-21T08:30:13.357Z,15.41
2023-10-21T08:31:13.574Z,15.67
2023-10-21T08:32:13.607Z,15.76
2023-10-21T08:33:13.488Z,15.67
2023-10-21T08:34:13.486Z,15.76
2023-10-21T08:35:13.478Z,15.79
2023-10-21T08:36:13.499Z,15.78
2023-10-21T08:37:13.478Z,16.04
2023-10-21T08:38:13.410Z,16.16
2023-10-21T08:39:13.291Z,16.11
2023-10-21T08:40:13.504Z,16.03
2023-10-21T08:41:13.263Z,15.84
2023-10-21T08:42:13.387Z,15.97
2023-10-21T08:43:13.230Z,16.31
2023-10-21T08:44:13.254Z,16.63
2023-10-21T08:45:13.450Z,16.85
2023-10-21T08:46:13.185Z,17.15
2023-10-21T08:47:15.024Z,17.23
2023-10-21T08:48:13.204Z,17.59
2023-10-21T08:49:13.337Z,17.89
2023-10-21T08:50:13.165Z,17.74
2023-10-21T08:51:13.314Z,17.38
2023-10-21T08:52:13.068Z,17.17
2023-10-21T08:53:13.072Z,17.00
2023-10-21T08:54:13.157Z,17.28
2023-10-21T08:55:13.122Z,17.76
2023-10-21T08:56:13.122Z,18.03
2023-10-21T08:57:13.074Z,18.42
2023-10-21T08:58:13.106Z,18.79
2023-10-21T08:59:13.030Z,18.98
2023-10-21T09:00:13.268Z,18.70
2023-10-21T09:01:13.104Z,19.10
2023-10-21T09:02:13.012Z,19.35
2023-10-21T09:03:13.028Z,19.55
2023-10-21T09:04:13.199Z,19.57
2023-10-21T09:05:12.991Z,19.66
2023-10-21T09:06:13.445Z,19.90
2023-10-21T09:07:13.271Z,20.31
2023-10-21T09:08:13.162Z,20.89
2023-10-21T09:09:12.972Z,21.24
2023-10-21T09:10:12.925Z,21.75
2023-10-21T09:11:12.923Z,22.17
2023-10-21T09:12:13.076Z,21.90
2023-10-21T09:13:13.079Z,21.98
2023-10-21T09:14:13.097Z,22.39
2023-10-21T09:15:12.984Z,22.82
2023-10-21T09:16:12.984Z,23.31
2023-10-21T09:17:12.898Z,23.70
2023-10-21T09:18:13.096Z,23.80
2023-10-21T09:19:13.016Z,23.70
2023-10-21T09:20:13.206Z,23.61
2023-10-21T09:21:12.876Z,23.50
2023-10-21T09:22:12.907Z,23.20
2023-10-21T09:23:12.847Z,23.09
2023-10-21T09:24:12.989Z,23.22
2023-10-21T09:25:12.880Z,23.09
2023-10-21T09:26:12.843Z,22.87
2023-10-21T09:27:12.878Z,22.80
2023-10-21T09:28:12.900Z,22.93
2023-10-21T09:29:13.164Z,22.77
2023-10-21T09:30:12.800Z,22.31
2023-10-21T09:31:12.813Z,22.34
2023-10-21T09:32:12.923Z,21.72
2023-10-21T09:33:12.772Z,20.89
2023-10-21T09:34:12.727Z,20.76
2023-10-21T09:35:12.775Z,20.80
2023-10-21T09:36:22.271Z,20.25
2023-10-21T09:37:12.621Z,19.54
2023-10-21T09:38:12.648Z,19.05
2023-10-21T09:39:13.089Z,18.64
2023-10-21T09:40:12.802Z,18.04
2023-10-21T09:41:12.729Z,17.69
2023-10-21T09:42:12.762Z,17.40
2023-10-21T09:43:12.825Z,17.29
2023-10-21T09:44:12.608Z,17.28
2023-10-21T09:45:12.626Z,17.17
2023-10-21T09:46:12.648Z,17.00
2023-10-21T09:47:12.654Z,16.95
2023-10-21T09:48:12.832Z,16.96
2023-10-21T09:49:12.682Z,16.90
2023-10-21T09:50:12.619Z,16.85
2023-10-21T09:51:12.724Z,16.70
2023-10-21T09:52:12.521Z,16.59
2023-10-21T09:53:12.624Z,16.55
2023-10-21T09:54:12.580Z,16.44
2023-10-21T09:55:12.486Z,16.33
2023-10-21T09:56:12.586Z,16.25
2023-10-21T09:57:13.245Z,16.37
2023-10-21T09:58:12.900Z,17.64
2023-10-21T09:59:12.684Z,18.54
2023-10-21T10:00:12.657Z,18.29
2023-10-21T10:01:12.488Z,18.13
2023-10-21T10:02:12.642Z,17.99
2023-10-21T10:03:12.753Z,17.91
2023-10-21T10:04:12.489Z,17.88
2023-10-21T10:05:12.442Z,18.67
2023-10-21T10:06:12.652Z,19.33
2023-10-21T10:07:23.055Z,19.63
2023-10-21T10:08:12.742Z,20.02
2023-10-21T10:09:12.564Z,20.43
2023-10-21T10:10:12.374Z,21.09
2023-10-21T10:11:12.389Z,20.50
2023-10-21T10:12:12.359Z,21.06
2023-10-21T10:13:12.325Z,21.35
2023-10-21T10:14:12.286Z,22.14
2023-10-21T10:15:12.452Z,23.24
2023-10-21T10:16:12.546Z,23.87
2023-10-21T10:17:12.282Z,24.20
2023-10-21T10:18:12.500Z,24.71
2023-10-21T10:19:12.274Z,25.20
2023-10-21T10:20:12.364Z,26.02
2023-10-21T10:21:12.261Z,26.31
2023-10-21T10:22:12.211Z,26.27
2023-10-21T10:23:12.202Z,26.24
2023-10-21T10:24:12.701Z,26.21
2023-10-21T10:25:12.254Z,25.46
2023-10-21T10:26:12.169Z,25.80
2023-10-21T10:27:12.208Z,26.04
2023-10-21T10:28:12.190Z,26.25
2023-10-21T10:29:12.160Z,25.80
2023-10-21T10:30:12.236Z,26.24
2023-10-21T10:31:12.229Z,26.91
2023-10-21T10:32:12.109Z,26.52
2023-10-21T10:33:12.186Z,26.69
2023-10-21T10:34:12.277Z,27.09
2023-10-21T10:35:12.140Z,26.08
2023-10-21T10:36:12.202Z,25.93
2023-10-21T10:37:12.144Z,26.32
2023-10-21T10:38:12.529Z,26.86
2023-10-21T10:39:12.392Z,26.39
2023-10-21T10:40:12.121Z,26.17
2023-10-21T10:41:12.038Z,25.05
2023-10-21T10:42:12.216Z,23.87
2023-10-21T10:43:12.065Z,23.24
2023-10-21T10:44:11.993Z,23.19
2023-10-21T10:45:12.020Z,24.10
2023-10-21T10:46:12.065Z,25.06
2023-10-21T10:47:12.128Z,25.97
2023-10-21T10:48:12.269Z,25.25
2023-10-21T10:49:11.972Z,26.01
2023-10-21T10:50:11.957Z,26.28
2023-10-21T10:51:12.369Z,26.92
2023-10-21T10:52:12.127Z,27.39
2023-10-21T10:53:12.023Z,26.52
2023-10-21T10:54:12.025Z,25.89
2023-10-21T10:55:11.887Z,25.74
2023-10-21T10:56:11.924Z,26.59
2023-10-21T10:57:12.017Z,26.99
2023-10-21T10:58:11.936Z,27.41
2023-10-21T10:59:12.114Z,27.58
2023-10-21T11:00:11.979Z,26.86
2023-10-21T11:01:11.838Z,26.77
2023-10-21T11:02:11.828Z,26.77
2023-10-21T11:03:11.866Z,26.65
2023-10-21T11:04:11.966Z,26.74
2023-10-21T11:05:11.801Z,27.32
2023-10-21T11:06:11.902Z,27.57
2023-10-21T11:07:11.757Z,26.92
2023-10-21T11:08:11.799Z,25.54
2023-10-21T11:09:11.803Z,24.64
2023-10-21T11:10:11.763Z,23.49
2023-10-21T11:11:11.772Z,22.07
2023-10-21T11:12:11.827Z,21.21
2023-10-21T11:13:11.878Z,20.47
2023-10-21T11:14:11.730Z,19.83
2023-10-21T11:15:12.177Z,19.53
2023-10-21T11:16:11.824Z,19.24
2023-10-21T11:17:11.721Z,18.92
2023-10-21T11:18:11.801Z,18.68
2023-10-21T11:19:11.743Z,18.39
2023-10-21T11:20:11.652Z,18.18
2023-10-21T11:21:11.698Z,17.89
2023-10-21T11:22:11.698Z,17.70
2023-10-21T11:23:11.682Z,17.59
2023-10-21T11:24:11.793Z,17.53
2023-10-21T11:25:11.638Z,17.48
2023-10-21T11:26:11.573Z,17.44
2023-10-21T11:27:11.609Z,17.40
2023-10-21T11:28:11.596Z,17.38
2023-10-21T11:29:11.588Z,17.35
2023-10-21T11:30:11.623Z,17.35
2023-10-21T11:31:11.617Z,17.41
2023-10-21T11:32:11.581Z,17.87
2023-10-21T11:33:11.689Z,18.70
2023-10-21T11:34:11.615Z,19.02
2023-10-21T11:35:11.537Z,19.13
2023-10-21T11:36:11.591Z,19.05
2023-10-21T11:37:11.536Z,18.83
2023-10-21T11:38:11.566Z,18.74
2023-10-21T11:39:11.545Z,18.86
2023-10-21T11:40:11.465Z,19.06
2023-10-21T11:41:11.898Z,19.98
2023-10-21T11:42:11.794Z,20.30
2023-10-21T11:43:11.457Z,20.15
2023-10-21T11:44:11.605Z,19.97
2023-10-21T11:45:11.585Z,19.57
2023-10-21T11:46:11.781Z,19.58
2023-10-21T11:47:11.424Z,20.02
2023-10-21T11:48:12.157Z,19.97
2023-10-21T11:49:11.673Z,19.84
2023-10-21T11:50:11.369Z,20.12
2023-10-21T11:51:11.370Z,20.10
2023-10-21T11:52:11.591Z,20.12
2023-10-21T11:53:11.482Z,20.65
2023-10-21T11:54:11.509Z,22.13
2023-10-21T11:55:11.475Z,23.68
2023-10-21T11:56:11.555Z,25.02
2023-10-21T11:57:11.393Z,26.06
2023-10-21T11:58:11.245Z,26.31
2023-10-21T11:59:11.259Z,26.65
2023-10-21T12:00:11.387Z,26.76
2023-10-21T12:01:11.300Z,26.27
2023-10-21T12:02:11.446Z,26.29
2023-10-21T12:03:11.464Z,26.49
2023-10-21T12:04:11.414Z,26.94
2023-10-21T12:05:11.405Z,27.32
2023-10-21T12:06:11.388Z,27.50
2023-10-21T12:07:11.404Z,27.43
2023-10-21T12:08:11.486Z,27.51
2023-10-21T12:09:11.221Z,27.26
2023-10-21T12:10:11.241Z,27.70
2023-10-21T12:11:11.289Z,27.74
2023-10-21T12:12:11.438Z,27.98
2023-10-21T12:13:11.287Z,26.49
2023-10-21T12:14:11.166Z,24.41
2023-10-21T12:15:11.236Z,22.94
2023-10-21T12:16:11.157Z,21.53
2023-10-21T12:17:14.695Z,20.59
2023-10-21T12:18:12.267Z,19.94
2023-10-21T12:19:11.134Z,19.36
2023-10-21T12:20:11.287Z,18.84
2023-10-21T12:21:11.203Z,19.18
2023-10-21T12:22:11.030Z,18.87
2023-10-21T12:23:11.049Z,18.91
2023-10-21T12:24:11.130Z,18.64
2023-10-21T12:25:11.116Z,18.49
2023-10-21T12:26:11.104Z,18.40
2023-10-21T12:27:11.031Z,18.31
2023-10-21T12:28:11.199Z,18.29
2023-10-21T12:29:12.516Z,19.02
2023-10-21T12:30:11.067Z,20.72
2023-10-21T12:31:10.962Z,22.09
2023-10-21T12:32:10.960Z,23.12
2023-10-21T12:33:11.006Z,22.50
2023-10-21T12:34:10.958Z,22.37
2023-10-21T12:35:10.916Z,21.54
2023-10-21T12:36:11.010Z,20.50
2023-10-21T12:37:10.908Z,19.79
2023-10-21T12:38:10.872Z,19.05
2023-10-21T12:39:10.962Z,18.61
2023-10-21T12:40:10.865Z,18.28
2023-10-21T12:41:10.883Z,18.04
2023-10-21T12:42:11.205Z,17.88
2023-10-21T12:43:10.851Z,17.73
2023-10-21T12:44:11.050Z,17.59
2023-10-21T12:45:11.036Z,17.47
2023-10-21T12:46:10.789Z,17.32
2023-10-21T12:47:10.901Z,17.32
2023-10-21T12:48:11.047Z,18.74
2023-10-21T12:49:22.865Z,20.02
2023-10-21T12:50:10.747Z,21.34
2023-10-21T12:51:10.847Z,22.53
2023-10-21T12:52:10.758Z,23.05